Time;durP1;ratioP1;P1;durP2;ratioP2;P2;SDS_P1;SDS_P2;PMS_P1;PMS_P2;Temp;Humidity;BMP_temperature;BMP_pressure;BME280_temperature;BME280_humidity;BME280_pressure;Samples;Min_cycle;Max_cycle;Signal;HPM_P1;HPM_P2
2023/04/11 00:01:48;;;;;;;;;;;;;;;20.62;47.02;100642.28;4960238;28;3327;-72
2023/04/11 00:04:16;;;;;;;;;;;;;;;20.60;47.03;100628.56;4959765;28;2803;-71
2023/04/11 00:06:42;;;;;;;;;;;;;;;20.60;46.97;100628.56;4958293;28;2811;-71
2023/04/11 00:09:11;;;;;;;;;;;;;;;20.58;46.96;100625.59;4953201;28;2884;-72
2023/04/11 00:11:38;;;;;;;;;;;;;;;20.59;46.92;100623.44;4960461;28;2792;-71
2023/04/11 00:14:04;;;;;;;;;;;;;;;20.59;47.06;100626.31;4957956;28;2993;-72
2023/04/11 00:16:32;;;;;;;;;;;;;;;20.57;47.10;100614.72;4956438;28;2935;-71
2023/04/11 00:18:59;;;;;;;;;;;;;;;20.59;46.98;100609.06;4956070;28;2907;-72
2023/04/11 00:21:25;;;;;;;;;;;;;;;20.58;47.04;100610.47;4958250;28;3119;-71
2023/04/11 00:23:52;;;;;;;;;;;;;;;20.58;46.94;100604.72;4954745;28;3006;-71
2023/04/11 00:26:20;;;;;;;;;;;;;;;20.57;46.89;100586.72;4958992;28;2918;-71
2023/04/11 00:28:46;;;;;;;;;;;;;;;20.57;46.94;100588.84;4956244;28;2953;-71
2023/04/11 00:31:13;;;;;;;;;;;;;;;20.57;46.85;100585.97;4955031;28;2785;-71
2023/04/11 00:33:39;;;;;;;;;;;;;;;20.55;47.01;100580.09;4960496;28;2880;-71
2023/04/11 00:36:06;;;;;;;;;;;;;;;20.56;46.76;100578.72;4953273;28;3004;-71
2023/04/11 00:38:33;;;;;;;;;;;;;;;20.54;46.84;100578.63;4945964;28;2998;-71
2023/04/11 00:41:00;;;;;;;;;;;;;;;20.55;46.81;100574.34;4956686;28;3121;-71
2023/04/11 00:43:26;;;;;;;;;;;;;;;20.56;46.88;100561.44;4957498;28;3014;-72
2023/04/11 00:45:52;;;;;;;;;;;;;;;20.56;46.87;100564.34;4947010;28;3016;-72
2023/04/11 00:48:19;;;;;;;;;;;;;;;20.55;46.98;100562.84;4944453;28;2823;-71
2023/04/11 00:50:45;;;;;;;;;;;;;;;20.55;46.77;100559.97;4962317;28;3014;-72
2023/04/11 00:53:12;;;;;;;;;;;;;;;20.54;46.73;100558.50;4953978;28;2981;-71
2023/04/11 00:55:38;;;;;;;;;;;;;;;20.53;46.74;100557.03;4961895;28;2946;-72
2023/04/11 00:58:05;;;;;;;;;;;;;;;20.53;46.70;100554.16;4952989;28;2824;-71
2023/04/11 01:00:34;;;;;;;;;;;;;;;20.54;46.73;100544.09;4960533;28;2823;-71
2023/04/11 01:03:01;;;;;;;;;;;;;;;20.53;46.72;100526.13;4964927;28;2163;-72
2023/04/11 01:05:28;;;;;;;;;;;;;;;20.52;46.80;100524.63;4939569;28;2932;-72
2023/04/11 01:07:54;;;;;;;;;;;;;;;20.53;46.71;100519.63;4961634;28;2761;-72
2023/04/11 01:10:21;;;;;;;;;;;;;;;20.53;46.91;100508.13;4958762;28;3055;-71
2023/04/11 01:12:49;;;;;;;;;;;;;;;20.52;46.67;100527.50;4924221;28;2861;-72
2023/04/11 01:15:15;;;;;;;;;;;;;;;20.51;46.86;100521.00;4949922;28;2950;-72
2023/04/11 01:17:42;;;;;;;;;;;;;;;20.52;46.79;100510.25;4945184;28;2829;-72
2023/04/11 01:20:08;;;;;;;;;;;;;;;20.51;46.69;100506.63;4959497;28;3102;-71
2023/04/11 01:22:36;;;;;;;;;;;;;;;20.50;46.74;100496.53;4955044;28;3054;-71
2023/04/11 01:25:03;;;;;;;;;;;;;;;20.49;46.69;100492.16;4951544;28;3460;-71
2023/04/11 01:27:30;;;;;;;;;;;;;;;20.52;46.69;100498.72;4960942;28;2697;-72
2023/04/11 01:29:56;;;;;;;;;;;;;;;20.56;46.50;100486.66;4938916;28;3021;-71
2023/04/11 01:32:23;;;;;;;;;;;;;;;20.58;47.29;100486.78;4955869;28;2871;-71
2023/04/11 01:34:50;;;;;;;;;;;;;;;20.56;47.33;100472.28;4951447;28;4429;-71
2023/04/11 01:37:16;;;;;;;;;;;;;;;20.51;47.43;100472.13;4942584;28;2723;-71
2023/04/11 01:39:42;;;;;;;;;;;;;;;20.50;47.14;100464.91;4961116;28;2862;-71
2023/04/11 01:42:09;;;;;;;;;;;;;;;20.50;47.19;100464.91;4963010;28;2882;-71
2023/04/11 01:44:35;;;;;;;;;;;;;;;20.50;47.08;100459.16;4943565;28;3215;-72
2023/04/11 01:47:02;;;;;;;;;;;;;;;20.51;47.26;100445.50;4954737;28;2977;-71
2023/04/11 01:49:28;;;;;;;;;;;;;;;20.49;47.26;100457.66;4961616;28;3649;-71
2023/04/11 01:51:54;;;;;;;;;;;;;;;20.50;47.03;100441.13;4938416;28;2864;-71
2023/04/11 01:54:21;;;;;;;;;;;;;;;20.48;47.02;100450.44;4961880;28;2791;-70
2023/04/11 01:56:47;;;;;;;;;;;;;;;20.49;47.05;100443.28;4960771;28;2916;-71
2023/04/11 01:59:14;;;;;;;;;;;;;;;20.48;46.96;100438.19;4957809;28;2674;-71
2023/04/11 02:01:43;;;;;;;;;;;;;;;20.48;46.91;100433.19;4956472;28;2892;-71
2023/04/11 02:04:10;;;;;;;;;;;;;;;20.47;47.05;100425.94;4960014;28;2792;-70
2023/04/11 02:06:40;;;;;;;;;;;;;;;20.48;46.87;100421.69;4939050;28;2946;-70
2023/04/11 02:09:06;;;;;;;;;;;;;;;20.48;47.00;100415.19;4946505;28;3219;-71
2023/04/11 02:11:33;;;;;;;;;;;;;;;20.47;46.83;100407.94;4960420;28;2776;-71
2023/04/11 02:14:01;;;;;;;;;;;;;;;20.47;46.91;100405.81;4962009;28;2928;-70
2023/04/11 02:16:28;;;;;;;;;;;;;;;20.47;46.78;100399.31;4960691;28;2959;-70
2023/04/11 02:18:55;;;;;;;;;;;;;;;20.46;46.79;100389.97;4961513;28;2657;-70
2023/04/11 02:21:22;;;;;;;;;;;;;;;20.46;46.82;100392.84;4953996;28;2878;-71
2023/04/11 02:23:48;;;;;;;;;;;;;;;20.45;46.73;100382.72;4958573;28;2905;-70
2023/04/11 02:26:14;;;;;;;;;;;;;;;20.45;46.75;100382.72;4945493;28;2951;-71
2023/04/11 02:28:41;;;;;;;;;;;;;;;20.45;46.82;100382.72;4962276;28;2780;-71
2023/04/11 02:31:07;;;;;;;;;;;;;;;20.45;46.70;100391.34;4962107;28;2838;-70
2023/04/11 02:33:34;;;;;;;;;;;;;;;20.44;46.74;100381.25;4948822;28;2220;-71
2023/04/11 02:36:00;;;;;;;;;;;;;;;20.44;46.77;100369.75;4950389;28;2863;-71
2023/04/11 02:38:26;;;;;;;;;;;;;;;20.43;46.81;100379.78;4951608;28;2894;-70
2023/04/11 02:40:53;;;;;;;;;;;;;;;20.43;46.73;100368.28;4958351;28;2899;-71
2023/04/11 02:43:19;;;;;;;;;;;;;;;20.43;46.78;100371.16;4967415;28;2957;-71
2023/04/11 02:45:46;;;;;;;;;;;;;;;20.43;46.65;100368.28;4947564;28;2826;-71
2023/04/11 02:48:13;;;;;;;;;;;;;;;20.43;46.59;100368.28;4960310;28;2885;-72
2023/04/11 02:50:42;;;;;;;;;;;;;;;20.43;46.66;100353.13;4946947;28;2887;-71
2023/04/11 02:53:10;;;;;;;;;;;;;;;20.42;46.59;100354.56;4957687;28;3004;-70
2023/04/11 02:55:42;;;;;;;;;;;;;;;20.43;46.54;100358.91;4947538;28;3023;-71
2023/04/11 02:58:08;;;;;;;;;;;;;;;20.43;46.59;100365.41;4958843;28;3286;-71
2023/04/11 03:00:36;;;;;;;;;;;;;;;20.44;46.57;100357.50;4941294;28;3163;-70
2023/04/11 03:03:05;;;;;;;;;;;;;;;20.45;46.75;100353.94;4957009;28;2908;-70
2023/04/11 03:05:37;;;;;;;;;;;;;;;20.47;46.85;100362.66;4939739;28;2969;-70
2023/04/11 03:08:07;;;;;;;;;;;;;;;20.49;46.97;100356.97;4941757;28;2959;-71
2023/04/11 03:10:35;;;;;;;;;;;;;;;20.51;47.07;100345.56;4941606;28;2939;-71
2023/04/11 03:13:02;;;;;;;;;;;;;;;20.53;46.86;100341.31;4945036;28;2518;-70
2023/04/11 03:15:31;;;;;;;;;;;;;;;20.53;46.97;100332.66;4938594;28;3024;-71
2023/04/11 03:18:01;;;;;;;;;;;;;;;20.53;46.98;100335.56;4953445;28;2836;-71
2023/04/11 03:20:28;;;;;;;;;;;;;;;20.55;46.90;100338.47;4954912;28;3006;-71
2023/04/11 03:22:55;;;;;;;;;;;;;;;20.55;46.90;100335.59;4939191;28;3094;-71
2023/04/11 03:25:22;;;;;;;;;;;;;;;20.50;46.94;100332.59;4940801;28;2931;-72
2023/04/11 03:27:50;;;;;;;;;;;;;;;20.50;46.98;100343.34;4958663;28;3003;-71
2023/04/11 03:30:16;;;;;;;;;;;;;;;20.50;46.94;100331.84;4951665;28;2891;-71
2023/04/11 03:32:45;;;;;;;;;;;;;;;20.49;46.97;100327.50;4933935;28;3022;-71
2023/04/11 03:35:13;;;;;;;;;;;;;;;20.49;47.04;100330.38;4942497;28;2750;-71
2023/04/11 03:37:59;;;;;;;;;;;;;;;20.47;46.72;100333.91;4953071;28;2970;-71
2023/04/11 03:40:26;;;;;;;;;;;;;;;20.47;46.91;100328.16;4955737;28;2999;-70
2023/04/11 03:43:02;;;;;;;;;;;;;;;20.48;46.93;100335.38;4931063;28;2897;-71
2023/04/11 03:45:32;;;;;;;;;;;;;;;20.50;46.78;100329.72;4946287;28;3094;-71
2023/04/11 03:48:02;;;;;;;;;;;;;;;20.50;46.74;100314.56;4941546;28;2766;-71
2023/04/11 03:50:42;;;;;;;;;;;;;;;20.49;46.71;100319.59;4958870;28;2899;-71
2023/04/11 03:53:10;;;;;;;;;;;;;;;20.48;46.67;100323.88;4940282;28;2887;-71
2023/04/11 03:55:39;;;;;;;;;;;;;;;20.49;46.71;100324.63;4957974;28;3061;-70
2023/04/11 03:58:07;;;;;;;;;;;;;;;20.48;46.67;100323.88;4940033;28;3124;-70
2023/04/11 04:00:33;;;;;;;;;;;;;;;20.48;46.55;100318.13;4944689;28;3007;-70
2023/04/11 04:03:05;;;;;;;;;;;;;;;20.48;46.76;100318.13;4943429;28;3137;-70
2023/04/11 04:05:33;;;;;;;;;;;;;;;20.49;46.72;100319.59;4956976;28;2963;-70
2023/04/11 04:08:00;;;;;;;;;;;;;;;20.49;46.89;100313.84;4951456;28;2646;-70
2023/04/11 04:10:39;;;;;;;;;;;;;;;20.50;46.78;100323.97;4943757;28;3108;-70
2023/04/11 04:13:05;;;;;;;;;;;;;;;20.50;47.03;100332.59;4961098;28;3001;-70
2023/04/11 04:15:36;;;;;;;;;;;;;;;20.53;46.98;100321.16;4958860;28;2998;-70
2023/04/11 04:18:02;;;;;;;;;;;;;;;20.54;47.12;100319.75;4961440;28;2991;-71
2023/04/11 04:20:40;;;;;;;;;;;;;;;20.56;46.78;100303.34;4963194;28;2866;-70
2023/04/11 04:23:07;;;;;;;;;;;;;;;20.58;46.93;100296.94;4939546;28;2715;-70
2023/04/11 04:25:56;;;;;;;;;;;;;;;20.59;46.85;100295.50;4943223;28;3062;-70
2023/04/11 04:28:26;;;;;;;;;;;;;;;20.59;46.95;100301.28;4954393;28;3116;-70
2023/04/11 04:30:56;;;;;;;;;;;;;;;20.58;46.98;100303.41;4958769;28;2877;-70
2023/04/11 04:33:25;;;;;;;;;;;;;;;20.59;46.81;100299.16;4955550;28;2949;-70
2023/04/11 04:35:58;;;;;;;;;;;;;;;20.59;46.86;100292.63;4949842;28;2911;-70
2023/04/11 04:38:28;;;;;;;;;;;;;;;20.60;46.99;100294.13;4959476;28;2893;-70
2023/04/11 04:40:57;;;;;;;;;;;;;;;20.59;46.80;100292.63;4958732;28;3489;-69
2023/04/11 04:43:26;;;;;;;;;;;;;;;20.60;46.80;100285.50;4942334;28;3031;-70
2023/04/11 04:46:10;;;;;;;;;;;;;;;20.61;46.81;100284.81;4932809;28;2986;-70
2023/04/11 04:48:45;;;;;;;;;;;;;;;20.61;46.78;100278.34;4939538;28;3428;-71
2023/04/11 04:51:11;;;;;;;;;;;;;;;20.63;46.89;100281.28;4960005;28;2799;-70
2023/04/11 04:53:38;;;;;;;;;;;;;;;20.64;46.85;100282.78;4942327;28;2947;-70
2023/04/11 04:56:06;;;;;;;;;;;;;;;20.65;46.98;100284.25;4957471;28;2818;-70
2023/04/11 04:58:37;;;;;;;;;;;;;;;20.66;46.94;100291.44;4958936;28;2849;-70
2023/04/11 05:01:07;;;;;;;;;;;;;;;20.65;47.13;100287.84;4939057;28;3148;-70
2023/04/11 05:03:37;;;;;;;;;;;;;;;20.64;46.85;100277.75;4938416;28;3165;-71
2023/04/11 05:06:08;;;;;;;;;;;;;;;20.67;46.77;100275.69;4961187;28;3093;-69
2023/04/11 05:08:36;;;;;;;;;;;;;;;20.67;46.75;100275.69;4953199;28;3312;-70
2023/04/11 05:11:05;;;;;;;;;;;;;;;20.66;47.36;100280.69;4944289;28;2591;-69
2023/04/11 05:13:31;;;;;;;;;;;;;;;20.61;47.10;100266.81;4940578;28;2875;-73
2023/04/11 05:15:58;;;;;;;;;;;;;;;20.33;46.91;100267.25;4945724;28;2886;-70
2023/04/11 05:18:25;;;;;;;;;;;;;;;19.88;46.80;100265.53;4943620;28;2690;-74
2023/04/11 05:20:51;;;;;;;;;;;;;;;19.48;46.44;100276.13;4958846;28;3028;-69
2023/04/11 05:23:21;;;;;;;;;;;;;;;19.36;46.49;100265.63;4935108;28;2808;-72
2023/04/11 05:25:50;;;;;;;;;;;;;;;19.80;45.51;100268.09;4948996;28;2987;-72
2023/04/11 05:28:16;;;;;;;;;;;;;;;20.11;45.84;100275.03;4940738;28;2883;-71
2023/04/11 05:30:42;;;;;;;;;;;;;;;20.26;45.48;100306.53;4953326;28;2910;-72
2023/04/11 05:33:11;;;;;;;;;;;;;;;20.38;45.38;100303.38;4946993;28;2875;-72
2023/04/11 05:35:40;;;;;;;;;;;;;;;20.45;45.48;100296.44;4956942;28;2909;-72
2023/04/11 05:38:07;;;;;;;;;;;;;;;20.62;47.34;100285.56;4956026;28;3166;-71
2023/04/11 05:40:33;;;;;;;;;;;;;;;21.11;47.67;100293.03;4955286;28;4627;-70
2023/04/11 05:43:00;;;;;;;;;;;;;;;21.17;46.26;100281.72;4964471;28;2917;-76
2023/04/11 05:45:26;;;;;;;;;;;;;;;21.02;46.88;100291.28;4940027;28;4040;-66
2023/04/11 05:47:52;;;;;;;;;;;;;;;21.18;46.76;100302.63;4943646;28;2914;-66
2023/04/11 05:50:19;;;;;;;;;;;;;;;21.24;46.20;100300.69;4941531;28;3038;-64
2023/04/11 05:52:51;;;;;;;;;;;;;;;21.22;46.17;100297.72;4939644;28;3042;-67
2023/04/11 05:55:21;;;;;;;;;;;;;;;21.40;46.72;100299.75;4960534;28;2962;-68
2023/04/11 05:57:47;;;;;;;;;;;;;;;21.47;46.45;100304.34;4960928;28;2943;-68
2023/04/11 06:00:15;;;;;;;;;;;;;;;21.49;46.14;100295.78;4961042;28;2939;-68
2023/04/11 06:02:42;;;;;;;;;;;;;;;21.47;46.17;100292.81;4963113;28;2974;-68
2023/04/11 06:05:10;;;;;;;;;;;;;;;21.51;46.21;100282.16;4965833;28;2175;-68
2023/04/11 06:07:38;;;;;;;;;;;;;;;21.53;45.99;100276.47;4963105;28;2848;-70
2023/04/11 06:10:07;;;;;;;;;;;;;;;21.54;46.17;100285.84;4962088;28;3259;-67
2023/04/11 06:12:34;;;;;;;;;;;;;;;21.58;46.12;100280.22;4962439;28;2880;-68
2023/04/11 06:15:00;;;;;;;;;;;;;;;21.52;46.36;100274.25;4957703;28;2982;-66
2023/04/11 06:17:27;;;;;;;;;;;;;;;21.31;46.63;100287.97;4967665;28;3193;-69
2023/04/11 06:19:53;;;;;;;;;;;;;;;21.19;46.71;100287.56;4966670;28;3027;-70
2023/04/11 06:22:19;;;;;;;;;;;;;;;21.11;46.91;100288.00;4966377;28;2944;-71
2023/04/11 06:24:46;;;;;;;;;;;;;;;21.10;46.70;100288.69;4968975;28;2498;-71
2023/04/11 06:27:12;;;;;;;;;;;;;;;21.06;47.11;100285.66;4967940;28;2573;-69
2023/04/11 06:29:39;;;;;;;;;;;;;;;21.22;47.03;100286.22;4964567;28;4071;-69
2023/04/11 06:32:06;;;;;;;;;;;;;;;21.21;47.27;100273.25;4967363;28;3032;-69
2023/04/11 06:34:32;;;;;;;;;;;;;;;21.44;47.12;100282.63;4969039;28;2954;-67
2023/04/11 06:36:59;;;;;;;;;;;;;;;21.48;46.81;100277.72;4963985;28;2840;-68
2023/04/11 06:39:25;;;;;;;;;;;;;;;21.51;46.66;100281.44;4967204;28;2950;-69
2023/04/11 06:41:52;;;;;;;;;;;;;;;21.53;46.79;100284.34;4967597;28;2954;-67
2023/04/11 06:44:23;;;;;;;;;;;;;;;21.56;46.62;100283.03;4961909;28;2936;-69
2023/04/11 06:46:50;;;;;;;;;;;;;;;21.58;46.44;100283.09;4961040;28;2986;-67
2023/04/11 06:49:17;;;;;;;;;;;;;;;21.57;46.53;100278.00;4965787;28;2702;-69
2023/04/11 06:51:48;;;;;;;;;;;;;;;21.58;46.43;100277.34;4968623;28;3014;-66
2023/04/11 06:54:15;;;;;;;;;;;;;;;21.61;46.40;100284.63;4966069;28;2895;-68
2023/04/11 06:56:42;;;;;;;;;;;;;;;21.43;46.62;100286.91;4965304;28;3125;-71
2023/04/11 06:59:08;;;;;;;;;;;;;;;21.25;46.79;100301.41;4960374;28;3171;-74
2023/04/11 07:01:36;;;;;;;;;;;;;;;21.11;47.40;100293.03;4960592;28;3296;-74
2023/04/11 07:04:03;;;;;;;;;;;;;;;21.07;47.38;100292.88;4964132;28;2932;-74
2023/04/11 07:06:30;;;;;;;;;;;;;;;21.07;47.37;100287.88;4962764;28;2868;-74
2023/04/11 07:08:57;;;;;;;;;;;;;;;21.05;47.31;100290.69;4967049;28;4240;-74
2023/04/11 07:11:23;;;;;;;;;;;;;;;21.03;47.19;100287.00;4966077;28;3002;-74
2023/04/11 07:13:49;;;;;;;;;;;;;;;21.03;47.41;100298.53;4967072;28;3280;-74
2023/04/11 07:16:16;;;;;;;;;;;;;;;21.01;47.31;100295.56;4966028;28;2952;-74
2023/04/11 07:18:42;;;;;;;;;;;;;;;21.00;47.41;100300.56;4965708;28;3081;-74
2023/04/11 07:21:12;;;;;;;;;;;;;;;20.99;47.49;100304.88;4963647;28;2955;-74
2023/04/11 07:23:39;;;;;;;;;;;;;;;20.98;47.36;100308.41;4967967;28;1802;-77
2023/04/11 07:26:07;;;;;;;;;;;;;;;21.19;50.30;100304.06;4962441;28;4435;-64
2023/04/11 07:28:36;;;;;;;;;;;;;;;21.30;48.67;100303.03;4962779;28;4228;-65
2023/04/11 07:31:06;;;;;;;;;;;;;;;21.32;48.87;100294.44;4963275;28;4523;-65
2023/04/11 07:33:33;;;;;;;;;;;;;;;21.36;48.80;100305.38;4961823;28;2927;-68
2023/04/11 07:35:59;;;;;;;;;;;;;;;21.39;48.55;100304.03;4963675;28;3335;-69
2023/04/11 07:38:28;;;;;;;;;;;;;;;21.47;48.36;100305.06;4963622;28;3057;-68
2023/04/11 07:40:55;;;;;;;;;;;;;;;21.50;47.85;100297.22;4964769;28;3174;-69
2023/04/11 07:43:25;;;;;;;;;;;;;;;21.49;47.83;100313.06;4965941;28;3380;-69
2023/04/11 07:45:51;;;;;;;;;;;;;;;21.51;47.74;100310.97;4966271;28;3001;-69
2023/04/11 07:48:19;;;;;;;;;;;;;;;21.52;48.00;100314.59;4966552;28;2962;-68
2023/04/11 07:50:46;;;;;;;;;;;;;;;21.43;47.94;100315.72;4966429;28;2895;-69
2023/04/11 07:53:15;;;;;;;;;;;;;;;21.42;47.95;100314.25;4965082;28;3525;-69
2023/04/11 07:55:41;;;;;;;;;;;;;;;21.41;48.05;100315.66;4962917;28;2935;-69
2023/04/11 07:58:07;;;;;;;;;;;;;;;21.42;47.96;100314.25;4967320;28;2879;-69
2023/04/11 08:00:34;;;;;;;;;;;;;;;21.41;47.77;100333.66;4963938;28;3185;-71
2023/04/11 08:03:06;;;;;;;;;;;;;;;21.39;47.72;100332.84;4967620;28;2970;-68
2023/04/11 08:05:33;;;;;;;;;;;;;;;21.42;47.65;100343.06;4959729;28;4144;-69
2023/04/11 08:08:00;;;;;;;;;;;;;;;21.46;47.27;100348.94;4963660;28;2887;-69
2023/04/11 08:10:26;;;;;;;;;;;;;;;21.48;47.26;100346.13;4964957;28;2900;-69
2023/04/11 08:12:53;;;;;;;;;;;;;;;21.24;47.53;100346.75;4962262;28;3707;-67
2023/04/11 08:15:20;;;;;;;;;;;;;;;21.32;48.02;100334.78;4964844;28;2724;-72
2023/04/11 08:17:48;;;;;;;;;;;;;;;21.46;47.90;100335.28;4965941;28;2935;-72
2023/04/11 08:20:15;;;;;;;;;;;;;;;21.46;47.79;100340.31;4966074;28;2949;-70
2023/04/11 08:22:43;;;;;;;;;;;;;;;21.48;47.69;100340.38;4964148;28;3005;-70
2023/04/11 08:25:10;;;;;;;;;;;;;;;21.50;47.73;100343.31;4966833;28;2807;-71
2023/04/11 08:27:36;;;;;;;;;;;;;;;21.65;46.98;100348.16;4965418;28;2848;-72
2023/04/11 08:30:03;;;;;;;;;;;;;;;21.80;46.79;100351.50;4964413;28;3098;-70
2023/04/11 08:32:29;;;;;;;;;;;;;;;21.93;46.39;100359.13;4966849;28;3487;-74
2023/04/11 08:34:56;;;;;;;;;;;;;;;21.92;46.68;100352.63;4963864;28;2930;-70
2023/04/11 08:37:22;;;;;;;;;;;;;;;21.73;46.59;100348.41;4964772;28;3018;-76
2023/04/11 08:39:49;;;;;;;;;;;;;;;21.88;46.73;100351.78;4963733;28;3837;-73
2023/04/11 08:42:24;;;;;;;;;;;;;;;21.81;47.02;100350.09;4957999;28;4193;-77
2023/04/11 08:44:51;;;;;;;;;;;;;;;21.88;46.94;100360.41;4963794;28;3090;-77
2023/04/11 08:47:18;;;;;;;;;;;;;;;21.89;46.43;100364.75;4964559;28;2935;-77
2023/04/11 08:49:44;;;;;;;;;;;;;;;22.07;46.67;100359.56;4964942;28;2426;-71
2023/04/11 08:52:11;;;;;;;;;;;;;;;22.02;46.21;100355.09;4962689;28;2907;-75
2023/04/11 08:54:37;;;;;;;;;;;;;;;21.97;46.57;100350.63;4964599;28;2910;-76
2023/04/11 08:57:03;;;;;;;;;;;;;;;22.10;46.29;100349.56;4963925;28;2935;-78
2023/04/11 08:59:31;;;;;;;;;;;;;;;22.11;46.06;100356.81;4965768;28;2503;-76
2023/04/11 09:02:08;;;;;;;;;;;;;;;22.02;46.02;100355.09;4949287;28;3074;-71
2023/04/11 09:04:38;;;;;;;;;;;;;;;21.89;46.00;100353.22;4965373;28;2418;-67
2023/04/11 09:07:05;;;;;;;;;;;;;;;21.98;46.33;100360.00;4959858;28;3014;-70
2023/04/11 09:09:33;;;;;;;;;;;;;;;22.08;45.90;100352.41;4958397;28;2884;-71
2023/04/11 09:12:00;;;;;;;;;;;;;;;21.95;46.79;100357.03;4964966;28;3303;-72
2023/04/11 09:14:26;;;;;;;;;;;;;;;21.84;46.61;100342.97;4958646;28;2977;-70
2023/04/11 09:17:03;;;;;;;;;;;;;;;21.79;46.67;100356.53;4960869;28;3305;-69
2023/04/11 09:19:30;;;;;;;;;;;;;;;21.65;46.23;100342.38;4957919;28;2916;-69
2023/04/11 09:22:00;;;;;;;;;;;;;;;21.81;46.25;100347.22;4955633;28;3023;-73
2023/04/11 09:24:27;;;;;;;;;;;;;;;22.02;46.49;100340.69;4955884;28;3030;-77
2023/04/11 09:27:11;;;;;;;;;;;;;;;22.14;46.57;100338.16;4958119;28;3486;-71
2023/04/11 09:29:41;;;;;;;;;;;;;;;22.21;46.41;100326.81;4961879;28;2949;-75
2023/04/11 09:32:24;;;;;;;;;;;;;;;22.16;46.33;100332.47;4960895;28;2872;-73
2023/04/11 09:34:50;;;;;;;;;;;;;;;22.22;45.72;100331.19;4958833;28;2942;-72
2023/04/11 09:37:17;;;;;;;;;;;;;;;22.31;45.74;100338.69;4962037;28;3204;-72
2023/04/11 09:39:43;;;;;;;;;;;;;;;22.45;45.44;100344.91;4961678;28;2751;-72
2023/04/11 09:42:23;;;;;;;;;;;;;;;22.34;45.11;100340.97;4944537;28;3296;-69
2023/04/11 09:44:49;;;;;;;;;;;;;;;22.05;45.47;100336.44;4963551;28;2783;-70
2023/04/11 09:47:15;;;;;;;;;;;;;;;21.96;46.13;100334.72;4958189;28;2994;-68
2023/04/11 09:49:42;;;;;;;;;;;;;;;22.00;46.45;100342.75;4961006;28;2729;-69
2023/04/11 09:52:08;;;;;;;;;;;;;;;21.89;46.21;100353.22;4959359;28;3340;-71
2023/04/11 09:54:35;;;;;;;;;;;;;;;21.72;46.29;100346.94;4946053;28;2731;-70
2023/04/11 09:57:01;;;;;;;;;;;;;;;21.45;46.21;100342.44;4954980;28;2845;-72
2023/04/11 09:59:27;;;;;;;;;;;;;;;21.41;46.60;100336.53;4943845;28;2918;-73
2023/04/11 10:01:54;;;;;;;;;;;;;;;21.74;46.81;100338.38;4943990;28;2737;-67
2023/04/11 10:04:21;;;;;;;;;;;;;;;22.01;46.47;100342.06;4962477;28;2773;-64
2023/04/11 10:06:50;;;;;;;;;;;;;;;21.96;46.52;100334.72;4962190;28;3018;-70
2023/04/11 10:09:17;;;;;;;;;;;;;;;22.02;46.47;100332.03;4959118;28;3002;-66
2023/04/11 10:11:43;;;;;;;;;;;;;;;22.27;46.16;100335.69;4958702;28;3616;-66
2023/04/11 10:14:40;;;;;;;;;;;;;;;22.25;45.91;100326.97;4958745;28;2902;-72
2023/04/11 10:17:10;;;;;;;;;;;;;;;22.09;46.24;100319.28;4962281;28;4474;-75
2023/04/11 10:19:37;;;;;;;;;;;;;;;21.84;46.96;100322.81;4963395;28;2449;-75
2023/04/11 10:22:03;;;;;;;;;;;;;;;21.78;47.21;100331.25;4955811;28;4410;-71
2023/04/11 10:24:29;;;;;;;;;;;;;;;21.88;47.26;100334.47;4961077;28;4444;-67
2023/04/11 10:26:59;;;;;;;;;;;;;;;22.07;47.15;100327.13;4958934;28;3314;-72
2023/04/11 10:29:29;;;;;;;;;;;;;;;21.99;47.31;100326.88;4958312;28;3105;-71
2023/04/11 10:32:14;;;;;;;;;;;;;;;22.24;47.37;100329.13;4954805;28;3063;-71
2023/04/11 10:34:49;;;;;;;;;;;;;;;22.27;47.49;100338.56;4958521;28;3475;-71
2023/04/11 10:37:16;;;;;;;;;;;;;;;22.38;47.30;100349.75;4956839;28;2860;-77
2023/04/11 10:39:48;;;;;;;;;;;;;;;22.08;47.59;100340.13;4956981;28;3482;-71
2023/04/11 10:42:27;;;;;;;;;;;;;;;22.14;47.92;100343.94;4958438;28;3166;-76
2023/04/11 10:45:12;;;;;;;;;;;;;;;22.20;47.81;100346.28;4958304;28;3079;-72
2023/04/11 10:47:39;;;;;;;;;;;;;;;22.53;48.16;100348.00;4957744;28;2917;-70
2023/04/11 10:50:25;;;;;;;;;;;;;;;22.57;47.76;100348.13;4958708;28;2978;-66
2023/04/11 10:52:55;;;;;;;;;;;;;;;22.50;47.98;100352.25;4956336;28;3218;-66
2023/04/11 10:55:22;;;;;;;;;;;;;;;22.59;47.68;100348.19;4951877;28;3241;-69
2023/04/11 10:58:07;;;;;;;;;;;;;;;22.52;47.67;100335.00;4957370;28;2843;-74
2023/04/11 11:00:45;;;;;;;;;;;;;;;22.47;48.09;100324.00;4953949;28;3038;-72
2023/04/11 11:03:13;;;;;;;;;;;;;;;22.40;48.60;100337.50;4952211;28;3252;-65
2023/04/11 11:05:39;;;;;;;;;;;;;;;22.16;48.10;100332.47;4956734;28;2954;-71
2023/04/11 11:08:06;;;;;;;;;;;;;;;21.90;47.10;100334.53;4943691;28;4428;-70
2023/04/11 11:10:33;;;;;;;;;;;;;;;22.05;46.94;100342.22;4958165;28;3019;-69
2023/04/11 11:12:59;;;;;;;;;;;;;;;22.16;47.87;100341.09;4963856;28;2966;-70
2023/04/11 11:15:25;;;;;;;;;;;;;;;22.26;47.70;100348.63;4960452;28;2876;-70
2023/04/11 11:17:52;;;;;;;;;;;;;;;22.29;48.04;100345.13;4963552;28;2856;-70
2023/04/11 11:20:18;;;;;;;;;;;;;;;22.06;47.59;100355.22;4963759;28;2974;-69
2023/04/11 11:22:58;;;;;;;;;;;;;;;22.06;47.81;100352.34;4960231;28;3082;-69
2023/04/11 11:25:24;;;;;;;;;;;;;;;22.18;47.93;100355.59;4963220;28;3009;-68
2023/04/11 11:28:06;;;;;;;;;;;;;;;22.15;48.23;100359.84;4964602;28;3073;-68
2023/04/11 11:30:33;;;;;;;;;;;;;;;22.37;48.49;100370.59;4963265;28;3131;-69
2023/04/11 11:33:12;;;;;;;;;;;;;;;22.43;48.42;100362.13;4960780;28;3312;-70
2023/04/11 11:35:39;;;;;;;;;;;;;;;22.35;48.29;100362.63;4964858;28;2837;-69
2023/04/11 11:38:05;;;;;;;;;;;;;;;22.46;47.72;100360.78;4965807;28;2935;-70
2023/04/11 11:40:32;;;;;;;;;;;;;;;22.50;47.59;100360.91;4967277;28;2378;-69
2023/04/11 11:42:58;;;;;;;;;;;;;;;22.47;47.83;100365.16;4964660;28;3076;-70
2023/04/11 11:45:24;;;;;;;;;;;;;;;22.73;47.38;100367.34;4965625;28;2927;-67
2023/04/11 11:47:55;;;;;;;;;;;;;;;22.38;46.78;100367.06;4958752;28;2994;-70
2023/04/11 11:50:22;;;;;;;;;;;;;;;22.27;47.26;100365.25;4961638;28;3122;-70
2023/04/11 11:52:49;;;;;;;;;;;;;;;22.43;47.24;100372.94;4959020;28;2805;-66
2023/04/11 11:55:18;;;;;;;;;;;;;;;22.50;47.37;100372.44;4961414;28;2922;-71
2023/04/11 11:57:48;;;;;;;;;;;;;;;22.57;46.81;100382.75;4965374;28;2975;-68
2023/04/11 12:00:14;;;;;;;;;;;;;;;22.57;46.96;100382.03;4962461;28;3098;-68
2023/04/11 12:02:41;;;;;;;;;;;;;;;22.59;46.98;100379.19;4954675;28;3035;-68
2023/04/11 12:05:09;;;;;;;;;;;;;;;22.62;46.46;100377.09;4943266;28;3027;-68
2023/04/11 12:07:36;;;;;;;;;;;;;;;22.59;46.74;100384.97;4964536;28;2537;-68
2023/04/11 12:10:05;;;;;;;;;;;;;;;22.57;46.57;100382.75;4965898;28;3400;-69
2023/04/11 12:12:35;;;;;;;;;;;;;;;22.60;46.73;100386.44;4963541;28;2934;-69
2023/04/11 12:15:11;;;;;;;;;;;;;;;22.62;46.40;100382.88;4963983;28;3069;-69
2023/04/11 12:17:37;;;;;;;;;;;;;;;22.62;46.57;100391.53;4958011;28;2927;-70
2023/04/11 12:20:05;;;;;;;;;;;;;;;22.66;46.22;100400.31;4965235;28;2764;-69
2023/04/11 12:22:32;;;;;;;;;;;;;;;22.54;46.53;100407.19;4965421;28;2848;-68
2023/04/11 12:25:04;;;;;;;;;;;;;;;22.56;47.08;100403.63;4963235;28;2987;-71
2023/04/11 12:27:33;;;;;;;;;;;;;;;22.57;46.48;100408.72;4965040;28;2880;-72
2023/04/11 12:30:00;;;;;;;;;;;;;;;22.53;47.10;100405.72;4964662;28;3531;-71
2023/04/11 12:32:26;;;;;;;;;;;;;;;22.32;47.08;100403.63;4966132;28;2717;-71
2023/04/11 12:34:53;;;;;;;;;;;;;;;22.31;46.64;100408.66;4967877;28;2107;-70
2023/04/11 12:37:20;;;;;;;;;;;;;;;22.33;46.93;100399.31;4962974;28;2800;-73
2023/04/11 12:39:46;;;;;;;;;;;;;;;22.40;47.38;100386.56;4960354;28;2938;-68
2023/04/11 12:42:12;;;;;;;;;;;;;;;22.61;46.75;100401.59;4963752;28;3014;-67
2023/04/11 12:44:43;;;;;;;;;;;;;;;22.57;46.19;100411.59;4963636;28;2980;-68
2023/04/11 12:47:10;;;;;;;;;;;;;;;22.57;46.48;100423.16;4963485;28;3244;-74
2023/04/11 12:49:36;;;;;;;;;;;;;;;22.36;46.75;100449.91;4961089;28;2787;-67
2023/04/11 12:52:02;;;;;;;;;;;;;;;22.47;46.68;100445.94;4963894;28;3368;-67
2023/04/11 12:54:29;;;;;;;;;;;;;;;22.50;46.43;100464.78;4962693;28;2907;-68